Time;durP1;ratioP1;P1;durP2;ratioP2;P2;SDS_P1;SDS_P2;PMS_P1;PMS_P2;Temp;Humidity;BMP_temperature;BMP_pressure;BME280_temperature;BME280_humidity;BME280_pressure;Samples;Min_cycle;Max_cycle;Signal;HPM_P1;HPM_P2
2022/03/15 00:02:07;;;;;;;31.63;17.63;;;;;;;;;;5025745;28;20616;-60
2022/03/15 00:04:32;;;;;;;29.63;18.02;;;;;;;;;;5039577;28;20547;-60
2022/03/15 00:06:59;;;;;;;29.25;16.98;;;;;;;;;;5038429;28;20215;-60
2022/03/15 00:09:24;;;;;;;28.42;16.55;;;;;;;;;;5040693;28;21053;-60
2022/03/15 00:11:49;;;;;;;26.48;15.80;;;;;;;;;;5046545;28;20218;-60
2022/03/15 00:14:15;;;;;;;27.45;16.58;;;;;;;;;;5045163;28;20580;-60
2022/03/15 00:16:41;;;;;;;28.85;16.75;;;;;;;;;;5046246;28;20226;-60
2022/03/15 00:19:07;;;;;;;32.10;16.35;;;;;;;;;;5045352;28;20237;-60
2022/03/15 00:21:32;;;;;;;30.17;16.67;;;;;;;;;;5045525;28;20215;-60
2022/03/15 00:23:58;;;;;;;26.80;15.57;;;;;;;;;;5045959;28;20651;-60
2022/03/15 00:26:24;;;;;;;27.98;15.77;;;;;;;;;;5038660;28;20222;-60
2022/03/15 00:28:49;;;;;;;34.33;15.88;;;;;;;;;;5037916;28;20646;-60
2022/03/15 00:31:14;;;;;;;32.75;16.42;;;;;;;;;;5038666;28;20736;-60
2022/03/15 00:33:40;;;;;;;25.08;15.00;;;;;;;;;;5044540;28;20738;-60
2022/03/15 00:36:05;;;;;;;27.50;14.48;;;;;;;;;;5063936;28;20233;-60
2022/03/15 00:38:30;;;;;;;28.67;14.75;;;;;;;;;;5065173;28;20305;-60
2022/03/15 00:40:56;;;;;;;32.90;15.93;;;;;;;;;;5047600;28;20308;-60
2022/03/15 00:43:21;;;;;;;26.75;14.70;;;;;;;;;;5026794;28;20297;-60
2022/03/15 00:45:46;;;;;;;26.48;14.02;;;;;;;;;;5046063;28;20207;-60
2022/03/15 00:48:13;;;;;;;23.83;13.50;;;;;;;;;;5040447;28;20223;-60
2022/03/15 00:50:39;;;;;;;27.58;15.15;;;;;;;;;;5037532;28;20500;-60
2022/03/15 00:53:05;;;;;;;26.25;14.85;;;;;;;;;;5019654;28;20235;-60
2022/03/15 00:55:30;;;;;;;24.45;13.55;;;;;;;;;;5041521;28;20222;-60
2022/03/15 00:57:56;;;;;;;28.83;13.35;;;;;;;;;;5045441;28;20218;-60
2022/03/15 01:00:22;;;;;;;21.85;12.77;;;;;;;;;;5044226;28;20273;-60
2022/03/15 01:02:48;;;;;;;21.85;12.40;;;;;;;;;;5044415;28;20222;-60
2022/03/15 01:05:13;;;;;;;23.20;12.38;;;;;;;;;;5043470;28;20215;-60
2022/03/15 01:07:38;;;;;;;24.35;12.57;;;;;;;;;;5045464;28;20736;-60
2022/03/15 01:10:04;;;;;;;23.92;12.57;;;;;;;;;;5042406;28;20276;-60
2022/03/15 01:12:29;;;;;;;23.90;12.57;;;;;;;;;;5038174;28;20215;-60
2022/03/15 01:14:55;;;;;;;26.35;12.43;;;;;;;;;;5037628;28;20519;-60
2022/03/15 01:17:20;;;;;;;25.95;12.50;;;;;;;;;;5038279;28;20222;-60
2022/03/15 01:19:45;;;;;;;26.42;12.57;;;;;;;;;;5045020;28;20223;-60
2022/03/15 01:22:10;;;;;;;25.80;12.95;;;;;;;;;;5044776;28;20639;-60
2022/03/15 01:24:36;;;;;;;25.58;12.77;;;;;;;;;;5044385;28;20245;-60
2022/03/15 01:27:01;;;;;;;25.70;12.05;;;;;;;;;;5044528;28;20329;-60
2022/03/15 01:29:28;;;;;;;26.35;13.27;;;;;;;;;;5045189;28;20206;-59
2022/03/15 01:31:54;;;;;;;23.75;12.73;;;;;;;;;;5063513;28;20218;-59
2022/03/15 01:34:19;;;;;;;23.77;13.05;;;;;;;;;;5057240;28;20242;-60
2022/03/15 01:36:44;;;;;;;22.83;12.82;;;;;;;;;;5056845;28;20590;-60
2022/03/15 01:39:10;;;;;;;23.17;12.38;;;;;;;;;;5052130;28;20241;-60
2022/03/15 01:41:39;;;;;;;24.90;12.23;;;;;;;;;;5043211;28;20264;-60
2022/03/15 01:44:12;;;;;;;30.05;13.57;;;;;;;;;;5062610;28;20818;-60
2022/03/15 01:46:37;;;;;;;28.48;12.93;;;;;;;;;;5045478;28;20210;-60
2022/03/15 01:49:02;;;;;;;26.17;12.90;;;;;;;;;;5063656;28;20229;-60
2022/03/15 01:51:28;;;;;;;29.20;13.82;;;;;;;;;;5064012;28;20747;-60
2022/03/15 01:53:53;;;;;;;27.77;14.00;;;;;;;;;;5063587;28;20659;-60
2022/03/15 01:56:18;;;;;;;24.98;13.70;;;;;;;;;;5041310;28;20685;-60
2022/03/15 01:58:43;;;;;;;29.08;14.65;;;;;;;;;;5055629;28;20264;-60
2022/03/15 02:01:09;;;;;;;30.40;14.82;;;;;;;;;;5056099;28;20210;-60
2022/03/15 02:03:34;;;;;;;24.77;13.23;;;;;;;;;;5060398;28;20309;-60
2022/03/15 02:06:01;;;;;;;27.25;14.00;;;;;;;;;;5045194;28;20218;-60
2022/03/15 02:08:26;;;;;;;26.85;13.85;;;;;;;;;;5044080;28;20234;-60
2022/03/15 02:10:51;;;;;;;26.20;14.80;;;;;;;;;;5044671;28;20282;-60
2022/03/15 02:13:17;;;;;;;26.48;13.40;;;;;;;;;;5045371;28;20211;-60
2022/03/15 02:15:42;;;;;;;32.03;15.43;;;;;;;;;;5048868;28;20353;-59
2022/03/15 02:18:07;;;;;;;29.63;15.88;;;;;;;;;;5046533;28;20305;-60
2022/03/15 02:20:32;;;;;;;31.45;16.42;;;;;;;;;;5059034;28;20280;-60
2022/03/15 02:22:58;;;;;;;29.30;16.17;;;;;;;;;;5060216;28;20215;-60
2022/03/15 02:25:24;;;;;;;29.60;17.70;;;;;;;;;;5060635;28;20244;-60
2022/03/15 02:27:49;;;;;;;30.83;18.58;;;;;;;;;;5067338;28;20287;-60
2022/03/15 02:30:14;;;;;;;31.55;17.52;;;;;;;;;;5066887;28;20580;-60
2022/03/15 02:32:40;;;;;;;29.42;17.52;;;;;;;;;;5067530;28;20253;-60
2022/03/15 02:35:06;;;;;;;33.13;18.25;;;;;;;;;;5066358;28;20293;-60
2022/03/15 02:37:31;;;;;;;30.00;19.25;;;;;;;;;;5067515;28;20222;-60
2022/03/15 02:39:56;;;;;;;33.75;19.15;;;;;;;;;;5057168;28;20246;-60
2022/03/15 02:42:22;;;;;;;28.70;18.13;;;;;;;;;;5040765;28;20205;-60
2022/03/15 02:44:47;;;;;;;32.88;19.77;;;;;;;;;;5040532;28;20250;-60
2022/03/15 02:47:13;;;;;;;33.75;21.02;;;;;;;;;;5059763;28;20229;-60
2022/03/15 02:49:38;;;;;;;33.90;21.52;;;;;;;;;;5064896;28;20324;-59
2022/03/15 02:52:03;;;;;;;35.10;21.85;;;;;;;;;;5066642;28;20333;-60
2022/03/15 02:54:29;;;;;;;32.75;21.80;;;;;;;;;;5066771;28;20592;-60
2022/03/15 02:56:54;;;;;;;35.88;21.25;;;;;;;;;;5066439;28;20578;-60
2022/03/15 02:59:19;;;;;;;38.08;22.85;;;;;;;;;;5066762;28;21207;-60
2022/03/15 03:01:45;;;;;;;33.70;23.25;;;;;;;;;;5067436;28;20232;-60
2022/03/15 03:04:10;;;;;;;34.47;22.30;;;;;;;;;;5057430;28;20650;-59
2022/03/15 03:06:36;;;;;;;34.70;21.95;;;;;;;;;;5022295;28;20681;-60
2022/03/15 03:09:02;;;;;;;34.38;22.42;;;;;;;;;;5057828;28;20214;-60
2022/03/15 03:11:27;;;;;;;39.78;23.45;;;;;;;;;;5063137;28;20957;-60
2022/03/15 03:13:55;;;;;;;34.92;22.52;;;;;;;;;;5066754;28;20210;-60
2022/03/15 03:16:20;;;;;;;35.35;21.80;;;;;;;;;;5048809;28;20223;-59
2022/03/15 03:18:46;;;;;;;33.85;21.33;;;;;;;;;;5047426;28;20223;-60
2022/03/15 03:21:12;;;;;;;40.58;23.20;;;;;;;;;;5065216;28;20566;-60
2022/03/15 03:23:38;;;;;;;34.60;22.20;;;;;;;;;;5065312;28;20720;-60
2022/03/15 03:26:03;;;;;;;36.42;22.25;;;;;;;;;;5064342;28;20679;-60
2022/03/15 03:28:36;;;;;;;37.08;22.85;;;;;;;;;;5059133;28;20221;-60
2022/03/15 03:31:01;;;;;;;34.22;21.52;;;;;;;;;;5058198;28;20704;-59
2022/03/15 03:33:26;;;;;;;34.22;21.90;;;;;;;;;;5060277;28;20214;-59
2022/03/15 03:35:52;;;;;;;34.28;21.83;;;;;;;;;;5066317;28;20263;-59
2022/03/15 03:38:17;;;;;;;31.75;21.65;;;;;;;;;;5065514;28;20214;-59
2022/03/15 03:40:42;;;;;;;31.38;20.52;;;;;;;;;;5049659;28;20223;-59
2022/03/15 03:43:08;;;;;;;30.85;21.73;;;;;;;;;;5046624;28;20211;-59
2022/03/15 03:45:34;;;;;;;32.63;22.40;;;;;;;;;;5046039;28;20222;-59
2022/03/15 03:48:00;;;;;;;32.53;21.98;;;;;;;;;;5065801;28;20232;-59
2022/03/15 03:50:25;;;;;;;36.97;22.27;;;;;;;;;;5059146;28;20336;-59
2022/03/15 03:52:50;;;;;;;31.48;21.23;;;;;;;;;;5058213;28;20234;-59
2022/03/15 03:55:17;;;;;;;32.45;21.23;;;;;;;;;;5058102;28;20256;-58
2022/03/15 03:57:42;;;;;;;35.97;22.42;;;;;;;;;;5064341;28;20613;-59
2022/03/15 04:00:08;;;;;;;31.90;20.55;;;;;;;;;;5064901;28;20602;-59
2022/03/15 04:02:33;;;;;;;32.08;20.48;;;;;;;;;;5065868;28;20300;-59
2022/03/15 04:04:58;;;;;;;34.08;20.20;;;;;;;;;;5054730;28;20219;-59
2022/03/15 04:07:23;;;;;;;30.48;19.98;;;;;;;;;;5045145;28;20264;-59
2022/03/15 04:09:49;;;;;;;32.90;20.38;;;;;;;;;;5046223;28;20223;-58
2022/03/15 04:12:20;;;;;;;32.22;20.38;;;;;;;;;;5042158;28;20224;-59
2022/03/15 04:14:46;;;;;;;30.90;19.30;;;;;;;;;;5039032;28;20203;-59
2022/03/15 04:17:12;;;;;;;29.33;19.25;;;;;;;;;;5038449;28;20210;-59
2022/03/15 04:19:37;;;;;;;31.65;20.35;;;;;;;;;;5061497;28;20736;-59
2022/03/15 04:22:03;;;;;;;26.85;18.83;;;;;;;;;;5064940;28;20613;-59
2022/03/15 04:24:28;;;;;;;25.52;18.13;;;;;;;;;;5065041;28;20784;-59
2022/03/15 04:26:53;;;;;;;30.58;19.33;;;;;;;;;;5065051;28;20221;-59
2022/03/15 04:29:19;;;;;;;27.75;18.35;;;;;;;;;;5064833;28;20215;-59
2022/03/15 04:31:44;;;;;;;30.88;19.35;;;;;;;;;;5065136;28;20740;-59
2022/03/15 04:34:10;;;;;;;27.13;17.95;;;;;;;;;;5062921;28;20210;-59
2022/03/15 04:36:35;;;;;;;26.58;18.25;;;;;;;;;;5037464;28;20215;-59
2022/03/15 04:39:01;;;;;;;27.85;17.60;;;;;;;;;;5020523;28;20234;-60
2022/03/15 04:41:26;;;;;;;28.55;17.83;;;;;;;;;;5038896;28;20210;-59
2022/03/15 04:43:51;;;;;;;23.77;17.25;;;;;;;;;;5045815;28;20599;-58
2022/03/15 04:46:17;;;;;;;28.42;17.88;;;;;;;;;;5045774;28;20541;-59
2022/03/15 04:48:42;;;;;;;22.92;16.50;;;;;;;;;;5044928;28;20215;-59
2022/03/15 04:51:08;;;;;;;22.63;16.10;;;;;;;;;;5045015;28;20253;-59
2022/03/15 04:53:35;;;;;;;23.33;16.65;;;;;;;;;;5045519;28;20567;-58
2022/03/15 04:56:00;;;;;;;24.85;16.20;;;;;;;;;;5063388;28;20594;-59
2022/03/15 04:58:25;;;;;;;25.73;17.13;;;;;;;;;;5057697;28;20225;-59
2022/03/15 05:00:51;;;;;;;27.98;17.70;;;;;;;;;;5057396;28;20234;-59
2022/03/15 05:03:16;;;;;;;26.00;15.82;;;;;;;;;;5057011;28;20229;-58
2022/03/15 05:05:42;;;;;;;27.65;16.92;;;;;;;;;;5046213;28;20211;-59
2022/03/15 05:08:08;;;;;;;28.67;17.40;;;;;;;;;;5044730;28;20218;-59
2022/03/15 05:13:18;;;;;;;27.52;16.60;;;;;;;;;;5063815;28;20217;-59
2022/03/15 05:15:44;;;;;;;22.85;16.17;;;;;;;;;;5044830;28;20218;-59
2022/03/15 05:18:09;;;;;;;26.42;17.25;;;;;;;;;;5043009;28;20226;-59
2022/03/15 05:20:34;;;;;;;27.05;16.88;;;;;;;;;;5040143;28;20254;-58
2022/03/15 05:22:59;;;;;;;25.38;16.73;;;;;;;;;;5036493;28;20528;-58
2022/03/15 05:25:25;;;;;;;25.50;16.38;;;;;;;;;;5037721;28;20593;-59
2022/03/15 05:27:50;;;;;;;24.27;17.25;;;;;;;;;;5042646;28;20240;-59
2022/03/15 05:30:17;;;;;;;26.13;17.70;;;;;;;;;;5063469;28;20210;-58
2022/03/15 05:32:42;;;;;;;26.52;17.70;;;;;;;;;;5064174;28;20249;-59
2022/03/15 05:35:07;;;;;;;26.10;17.55;;;;;;;;;;5063605;28;20249;-59
2022/03/15 05:37:33;;;;;;;26.25;17.40;;;;;;;;;;5063461;28;20256;-59
2022/03/15 05:39:58;;;;;;;23.98;16.85;;;;;;;;;;5044967;28;20336;-59
2022/03/15 05:42:24;;;;;;;29.98;17.02;;;;;;;;;;5041553;28;20526;-59
2022/03/15 05:44:49;;;;;;;27.38;17.13;;;;;;;;;;5043560;28;20317;-59
2022/03/15 05:47:14;;;;;;;28.70;16.05;;;;;;;;;;5056085;28;20222;-58
2022/03/15 05:49:40;;;;;;;26.83;17.58;;;;;;;;;;5059161;28;20206;-59
2022/03/15 05:52:07;;;;;;;25.20;16.88;;;;;;;;;;5062963;28;20725;-59
2022/03/15 05:54:33;;;;;;;27.38;17.75;;;;;;;;;;5063965;28;20701;-59
2022/03/15 05:56:58;;;;;;;27.25;18.27;;;;;;;;;;5063773;28;20222;-58
2022/03/15 05:59:23;;;;;;;24.80;16.67;;;;;;;;;;5063008;28;20227;-59
2022/03/15 06:01:49;;;;;;;23.83;17.02;;;;;;;;;;5063877;28;20253;-59
2022/03/15 06:04:14;;;;;;;26.23;16.92;;;;;;;;;;5058220;28;20245;-59
2022/03/15 06:06:39;;;;;;;24.85;16.63;;;;;;;;;;5036426;28;20650;-59
2022/03/15 06:09:04;;;;;;;23.02;16.42;;;;;;;;;;5036588;28;20203;-59
2022/03/15 06:11:34;;;;;;;24.55;16.63;;;;;;;;;;5037656;28;20218;-59
2022/03/15 06:14:00;;;;;;;28.98;18.33;;;;;;;;;;5062565;28;20214;-59
2022/03/15 06:16:25;;;;;;;26.65;17.55;;;;;;;;;;5045777;28;20650;-59
2022/03/15 06:18:50;;;;;;;26.00;17.23;;;;;;;;;;5044656;28;20297;-59
2022/03/15 06:21:16;;;;;;;23.65;16.25;;;;;;;;;;5042940;28;20223;-59
2022/03/15 06:23:41;;;;;;;23.27;17.27;;;;;;;;;;5044560;28;20242;-59
2022/03/15 06:26:06;;;;;;;26.80;17.77;;;;;;;;;;5042846;28;20564;-59
2022/03/15 06:28:32;;;;;;;23.65;16.65;;;;;;;;;;5039047;28;20661;-59
2022/03/15 06:30:57;;;;;;;24.88;17.55;;;;;;;;;;5055969;28;20874;-59
2022/03/15 06:33:23;;;;;;;24.77;16.25;;;;;;;;;;5055580;28;20697;-59
2022/03/15 06:35:48;;;;;;;22.13;16.35;;;;;;;;;;5061017;28;20210;-58
2022/03/15 06:38:13;;;;;;;22.95;16.65;;;;;;;;;;5062956;28;20654;-57
2022/03/15 06:40:40;;;;;;;22.60;17.20;;;;;;;;;;5046684;28;20908;-59
2022/03/15 06:43:06;;;;;;;25.20;16.08;;;;;;;;;;5043733;28;20581;-57
2022/03/15 06:45:32;;;;;;;23.88;15.85;;;;;;;;;;5057419;28;20218;-57
2022/03/15 06:47:58;;;;;;;23.90;15.98;;;;;;;;;;5048199;28;20215;-57
2022/03/15 06:50:23;;;;;;;24.17;17.38;;;;;;;;;;5051210;28;21392;-57
2022/03/15 06:52:49;;;;;;;26.80;17.38;;;;;;;;;;5052272;28;20242;-57
2022/03/15 06:55:14;;;;;;;24.27;15.77;;;;;;;;;;5048305;28;20210;-57
2022/03/15 06:57:39;;;;;;;25.77;17.27;;;;;;;;;;5052074;28;20222;-57
2022/03/15 07:00:06;;;;;;;25.25;16.17;;;;;;;;;;5051457;28;20233;-57
2022/03/15 07:02:31;;;;;;;25.20;19.88;;;;;;;;;;5052069;28;20262;-57
2022/03/15 07:04:56;;;;;;;23.52;16.90;;;;;;;;;;5064578;28;20227;-57
2022/03/15 07:07:21;;;;;;;27.10;16.65;;;;;;;;;;5072374;28;20286;-57
2022/03/15 07:09:47;;;;;;;23.92;15.43;;;;;;;;;;5071729;28;20209;-57
2022/03/15 07:12:12;;;;;;;27.65;16.13;;;;;;;;;;5072121;28;20233;-57
2022/03/15 07:14:37;;;;;;;22.40;15.70;;;;;;;;;;5069897;28;20679;-57
2022/03/15 07:17:03;;;;;;;22.45;16.42;;;;;;;;;;5051243;28;20207;-57
2022/03/15 07:19:28;;;;;;;28.63;17.67;;;;;;;;;;5052570;28;20212;-57
2022/03/15 07:21:53;;;;;;;23.10;14.80;;;;;;;;;;5052730;28;20210;-57
2022/03/15 07:24:19;;;;;;;24.85;15.38;;;;;;;;;;5051657;28;20219;-57
2022/03/15 07:26:44;;;;;;;22.05;15.15;;;;;;;;;;5052612;28;20214;-57
2022/03/15 07:29:09;;;;;;;20.63;15.30;;;;;;;;;;5051850;28;20242;-58
2022/03/15 07:31:34;;;;;;;20.92;14.50;;;;;;;;;;5052108;28;20657;-58
2022/03/15 07:34:00;;;;;;;21.08;14.55;;;;;;;;;;5057557;28;20310;-58
2022/03/15 07:36:25;;;;;;;21.10;14.05;;;;;;;;;;5061810;28;20241;-58
2022/03/15 07:38:50;;;;;;;24.77;13.95;;;;;;;;;;5059823;28;20210;-58
2022/03/15 07:41:18;;;;;;;22.60;13.68;;;;;;;;;;5065661;28;20215;-58
2022/03/15 07:43:44;;;;;;;19.30;13.15;;;;;;;;;;5071869;28;20214;-58
2022/03/15 07:46:09;;;;;;;24.65;13.98;;;;;;;;;;5066440;28;20261;-58
2022/03/15 07:48:34;;;;;;;20.58;13.40;;;;;;;;;;5064319;28;20268;-58
2022/03/15 07:51:00;;;;;;;26.05;14.82;;;;;;;;;;5059364;28;20301;-58
2022/03/15 07:53:25;;;;;;;23.95;14.98;;;;;;;;;;5061335;28;20697;-58
2022/03/15 07:55:50;;;;;;;24.25;15.45;;;;;;;;;;5050503;28;20243;-58
2022/03/15 07:58:16;;;;;;;22.35;15.05;;;;;;;;;;5064164;28;20263;-58
2022/03/15 08:00:41;;;;;;;20.02;14.23;;;;;;;;;;5064174;28;20689;-58
2022/03/15 08:03:06;;;;;;;20.63;13.73;;;;;;;;;;5067878;28;20675;-59
2022/03/15 08:05:32;;;;;;;24.17;14.57;;;;;;;;;;5072547;28;20219;-58
2022/03/15 08:07:57;;;;;;;19.73;13.95;;;;;;;;;;5088414;28;20206;-58
2022/03/15 08:10:22;;;;;;;19.15;13.07;;;;;;;;;;5073517;28;20222;-59
2022/03/15 08:12:48;;;;;;;22.63;13.18;;;;;;;;;;5073051;28;20202;-58
2022/03/15 08:15:13;;;;;;;21.25;13.30;;;;;;;;;;5073467;28;20237;-58
2022/03/15 08:17:38;;;;;;;18.60;13.23;;;;;;;;;;5072059;28;20214;-58
2022/03/15 08:20:04;;;;;;;22.15;13.65;;;;;;;;;;5070275;28;20313;-57
2022/03/15 08:22:30;;;;;;;18.38;12.30;;;;;;;;;;5053534;28;20265;-57
2022/03/15 08:24:56;;;;;;;15.77;10.50;;;;;;;;;;5067968;28;20230;-58
2022/03/15 08:27:21;;;;;;;21.20;11.98;;;;;;;;;;5050271;28;20211;-58
2022/03/15 08:29:47;;;;;;;18.83;11.15;;;;;;;;;;5051361;28;20203;-58
2022/03/15 08:32:12;;;;;;;17.13;10.20;;;;;;;;;;5050615;28;20254;-57
2022/03/15 08:34:37;;;;;;;19.25;10.30;;;;;;;;;;5050548;28;20306;-58
2022/03/15 08:37:03;;;;;;;18.45;10.23;;;;;;;;;;5050737;28;20238;-58
2022/03/15 08:39:28;;;;;;;17.15;10.00;;;;;;;;;;5050767;28;20219;-58
2022/03/15 08:41:54;;;;;;;17.10;9.70;;;;;;;;;;5050573;28;20629;-58
2022/03/15 08:44:19;;;;;;;20.00;9.45;;;;;;;;;;5035866;28;20206;-58
2022/03/15 08:46:45;;;;;;;17.75;9.57;;;;;;;;;;5070291;28;20673;-58
2022/03/15 08:49:11;;;;;;;16.95;9.88;;;;;;;;;;5052443;28;20217;-58
2022/03/15 08:51:36;;;;;;;16.83;9.70;;;;;;;;;;5070844;28;20222;-58
2022/03/15 08:54:01;;;;;;;16.48;9.80;;;;;;;;;;5069460;28;20618;-58
2022/03/15 08:56:26;;;;;;;17.85;9.00;;;;;;;;;;5067458;28;20222;-58
2022/03/15 08:58:52;;;;;;;22.17;11.95;;;;;;;;;;5050524;28;20678;-60
2022/03/15 09:01:17;;;;;;;20.92;10.55;;;;;;;;;;5051099;28;20215;-60
2022/03/15 09:03:42;;;;;;;22.50;14.77;;;;;;;;;;5070457;28;20222;-60
2022/03/15 09:06:07;;;;;;;17.42;10.07;;;;;;;;;;5070259;28;20210;-60
2022/03/15 09:08:33;;;;;;;20.48;14.48;;;;;;;;;;5069287;28;20210;-60
2022/03/15 09:10:58;;;;;;;15.40;10.20;;;;;;;;;;5070655;28;20199;-60
2022/03/15 09:13:23;;;;;;;19.10;9.85;;;;;;;;;;5069951;28;20217;-59
2022/03/15 09:15:49;;;;;;;18.55;10.85;;;;;;;;;;5069910;28;20297;-58
2022/03/15 09:18:14;;;;;;;20.33;13.27;;;;;;;;;;5055074;28;20272;-59
2022/03/15 09:20:41;;;;;;;19.67;10.30;;;;;;;;;;5050322;28;20709;-58
2022/03/15 09:23:07;;;;;;;18.88;9.70;;;;;;;;;;5047780;28;20621;-58
2022/03/15 09:25:32;;;;;;;17.70;9.90;;;;;;;;;;5050267;28;20239;-59
2022/03/15 09:27:57;;;;;;;16.58;9.70;;;;;;;;;;5050436;28;20563;-58
2022/03/15 09:30:23;;;;;;;19.33;10.50;;;;;;;;;;5048998;28;20217;-58
2022/03/15 09:32:48;;;;;;;23.35;12.13;;;;;;;;;;5050270;28;20669;-59
2022/03/15 09:35:14;;;;;;;16.50;11.38;;;;;;;;;;5049958;28;20642;-58
2022/03/15 09:37:41;;;;;;;19.83;11.65;;;;;;;;;;5049016;28;20301;-58
2022/03/15 09:40:08;;;;;;;20.17;10.63;;;;;;;;;;5049719;28;20233;-58
2022/03/15 09:42:34;;;;;;;29.88;20.13;;;;;;;;;;5050455;28;20235;-58
2022/03/15 09:44:59;;;;;;;29.20;16.98;;;;;;;;;;5057568;28;20241;-58
2022/03/15 09:47:25;;;;;;;89.20;50.28;;;;;;;;;;5069674;28;20234;-58
2022/03/15 09:49:50;;;;;;;27.15;14.50;;;;;;;;;;5070062;28;20293;-59
2022/03/15 09:52:15;;;;;;;20.63;10.27;;;;;;;;;;5050756;28;20243;-58
2022/03/15 09:54:41;;;;;;;18.10;9.50;;;;;;;;;;5070080;28;20256;-58
2022/03/15 09:57:06;;;;;;;17.33;9.45;;;;;;;;;;5042065;28;20246;-58
2022/03/15 09:59:31;;;;;;;24.27;18.38;;;;;;;;;;5049864;28;20223;-58
2022/03/15 10:01:59;;;;;;;19.40;11.43;;;;;;;;;;5050126;28;20278;-58
2022/03/15 10:04:24;;;;;;;21.70;13.48;;;;;;;;;;5048835;28;20306;-59
2022/03/15 10:06:49;;;;;;;21.20;10.63;;;;;;;;;;5049890;28;20298;-58
2022/03/15 10:09:15;;;;;;;18.55;11.20;;;;;;;;;;5031230;28;20203;-59
2022/03/15 10:11:40;;;;;;;18.17;10.73;;;;;;;;;;5049186;28;20218;-58
2022/03/15 10:14:06;;;;;;;18.98;11.18;;;;;;;;;;5049376;28;20207;-58
2022/03/15 10:16:32;;;;;;;20.38;11.20;;;;;;;;;;5049945;28;20310;-58
2022/03/15 10:18:58;;;;;;;22.25;11.93;;;;;;;;;;5049094;28;20215;-58
2022/03/15 10:21:25;;;;;;;21.58;11.85;;;;;;;;;;5031686;28;20209;-59
2022/03/15 10:23:52;;;;;;;21.23;11.73;;;;;;;;;;5049455;28;20245;-58
2022/03/15 10:26:25;;;;;;;22.00;11.45;;;;;;;;;;5048692;28;20211;-59
2022/03/15 10:28:53;;;;;;;22.02;12.50;;;;;;;;;;5049665;28;20215;-58
2022/03/15 10:31:20;;;;;;;22.15;12.55;;;;;;;;;;5048640;28;20222;-58
2022/03/15 10:33:45;;;;;;;22.73;12.38;;;;;;;;;;5032230;28;20835;-58
2022/03/15 10:36:17;;;;;;;19.95;12.25;;;;;;;;;;5052966;28;20784;-58
2022/03/15 10:38:44;;;;;;;21.42;12.85;;;;;;;;;;5052909;28;20359;-58
2022/03/15 10:41:09;;;;;;;22.88;12.70;;;;;;;;;;5052240;28;20222;-58
2022/03/15 10:43:37;;;;;;;21.33;12.07;;;;;;;;;;5035472;28;20245;-58
2022/03/15 10:46:02;;;;;;;22.02;12.60;;;;;;;;;;5069857;28;20222;-58
2022/03/15 10:48:30;;;;;;;22.75;12.63;;;;;;;;;;5072632;28;20230;-58
2022/03/15 10:50:57;;;;;;;20.25;12.48;;;;;;;;;;5073301;28;20214;-58
2022/03/15 10:53:25;;;;;;;22.30;11.82;;;;;;;;;;5071497;28;20226;-58
2022/03/15 10:55:51;;;;;;;25.15;11.93;;;;;;;;;;5072869;28;20269;-58
2022/03/15 10:58:20;;;;;;;25.98;12.10;;;;;;;;;;5054018;28;20204;-58
2022/03/15 11:00:46;;;;;;;19.10;11.73;;;;;;;;;;5051985;28;20251;-58
2022/03/15 11:03:23;;;;;;;20.45;11.25;;;;;;;;;;5052565;28;20239;-58
2022/03/15 11:05:50;;;;;;;22.52;11.63;;;;;;;;;;5052911;28;20211;-58
2022/03/15 11:08:15;;;;;;;24.73;11.85;;;;;;;;;;5051423;28;20306;-58
2022/03/15 11:10:41;;;;;;;18.80;11.32;;;;;;;;;;5052935;28;20793;-58
2022/03/15 11:13:09;;;;;;;31.17;17.42;;;;;;;;;;5052156;28;20210;-58
2022/03/15 11:15:38;;;;;;;74.55;44.17;;;;;;;;;;5051638;28;20215;-58
2022/03/15 11:18:04;;;;;;;126.32;73.25;;;;;;;;;;5052381;28;20265;-59
2022/03/15 11:20:32;;;;;;;27.50;15.02;;;;;;;;;;5052592;28;20235;-58
2022/03/15 11:22:58;;;;;;;16.65;9.15;;;;;;;;;;5051895;28;20729;-58
2022/03/15 11:25:23;;;;;;;16.63;8.93;;;;;;;;;;5052039;28;20850;-58
2022/03/15 11:27:52;;;;;;;23.33;10.95;;;;;;;;;;5034772;28;20211;-58
2022/03/15 11:30:17;;;;;;;19.38;10.30;;;;;;;;;;5050898;28;20758;-58
2022/03/15 11:32:43;;;;;;;16.02;8.13;;;;;;;;;;5052358;28;20210;-59
2022/03/15 11:35:09;;;;;;;15.75;7.53;;;;;;;;;;5051803;28;20249;-58
2022/03/15 11:37:34;;;;;;;15.52;7.43;;;;;;;;;;5051649;28;20211;-58
2022/03/15 11:40:03;;;;;;;16.85;7.45;;;;;;;;;;5052167;28;20222;-58
2022/03/15 11:42:28;;;;;;;15.27;7.70;;;;;;;;;;5033924;28;20278;-58
2022/03/15 11:45:00;;;;;;;18.35;7.38;;;;;;;;;;5041372;28;20621;-59
2022/03/15 11:47:38;;;;;;;18.50;7.80;;;;;;;;;;5053775;28;20218;-59
2022/03/15 11:50:11;;;;;;;19.42;8.25;;;;;;;;;;5070884;28;20223;-58
2022/03/15 11:52:40;;;;;;;16.42;7.65;;;;;;;;;;5054197;28;20246;-58
2022/03/15 11:55:17;;;;;;;16.63;7.70;;;;;;;;;;5071727;28;20210;-58
2022/03/15 11:57:44;;;;;;;17.20;7.80;;;;;;;;;;5057286;28;20260;-58
2022/03/15 12:00:09;;;;;;;16.25;7.47;;;;;;;;;;5051431;28;20223;-58
2022/03/15 12:02:38;;;;;;;17.15;7.93;;;;;;;;;;5051900;28;20264;-58
2022/03/15 12:05:17;;;;;;;21.25;9.73;;;;;;;;;;5050615;28;20220;-58
2022/03/15 12:07:50;;;;;;;17.48;8.15;;;;;;;;;;5051655;28;20737;-58
2022/03/15 12:10:23;;;;;;;16.50;7.65;;;;;;;;;;5051389;28;20217;-59
2022/03/15 12:12:57;;;;;;;16.67;7.97;;;;;;;;;;5050726;28;20218;-58
2022/03/15 12:15:30;;;;;;;15.95;7.30;;;;;;;;;;5051083;28;20218;-58
2022/03/15 12:20:47;;;;;;;20.17;8.73;;;;;;;;;;5051342;28;20233;-58
2022/03/15 12:23:22;;;;;;;23.30;14.43;;;;;;;;;;5050940;28;20211;-59
2022/03/15 12:25:54;;;;;;;20.60;13.10;;;;;;;;;;5050900;28;20740;-59
2022/03/15 12:28:27;;;;;;;18.45;9.20;;;;;;;;;;5050640;28;20218;-58
2022/03/15 12:30:53;;;;;;;16.13;8.70;;;;;;;;;;5051441;28;20215;-58
2022/03/15 12:33:26;;;;;;;13.88;7.30;;;;;;;;;;5049636;28;20243;-58
2022/03/15 12:35:57;;;;;;;16.80;7.70;;;;;;;;;;5051190;28;20280;-58
2022/03/15 12:38:31;;;;;;;14.52;6.35;;;;;;;;;;5050643;28;20238;-59
2022/03/15 12:40:56;;;;;;;15.75;6.32;;;;;;;;;;5050228;28;20227;-58
2022/03/15 12:43:22;;;;;;;16.77;6.18;;;;;;;;;;5050534;28;20211;-58
2022/03/15 12:45:47;;;;;;;12.85;5.90;;;;;;;;;;5065307;28;20214;-59
2022/03/15 12:48:13;;;;;;;13.77;6.30;;;;;;;;;;5052708;28;20230;-59
2022/03/15 12:50:38;;;;;;;13.18;5.93;;;;;;;;;;5053018;28;20218;-58
2022/03/15 12:53:09;;;;;;;13.77;6.18;;;;;;;;;;5069206;28;20233;-59
2022/03/15 12:55:35;;;;;;;13.73;5.80;;;;;;;;;;5070794;28;20726;-58
2022/03/15 12:58:03;;;;;;;15.00;6.68;;;;;;;;;;5052847;28;20242;-60
2022/03/15 13:00:32;;;;;;;9.93;6.00;;;;;;;;;;5050285;28;20230;-58
2022/03/15 13:02:57;;;;;;;15.75;6.28;;;;;;;;;;5058160;28;20271;-58
2022/03/15 13:05:23;;;;;;;14.57;6.10;;;;;;;;;;5069991;28;20206;-58
2022/03/15 13:07:51;;;;;;;13.75;6.20;;;;;;;;;;5068819;28;20806;-58
2022/03/15 13:10:24;;;;;;;14.07;6.13;;;;;;;;;;5077589;28;20213;-59
2022/03/15 13:12:52;;;;;;;14.82;6.20;;;;;;;;;;5089249;28;20316;-58
2022/03/15 13:15:19;;;;;;;11.77;5.35;;;;;;;;;;5085065;28;20571;-58
2022/03/15 13:17:48;;;;;;;15.77;5.68;;;;;;;;;;5049714;28;20239;-58
2022/03/15 13:20:25;;;;;;;11.30;5.97;;;;;;;;;;5050120;28;20238;-58
2022/03/15 13:22:56;;;;;;;12.38;5.32;;;;;;;;;;5050180;28;20297;-58
2022/03/15 13:25:21;;;;;;;15.77;5.78;;;;;;;;;;5049553;28;20233;-58
2022/03/15 13:27:46;;;;;;;15.15;5.97;;;;;;;;;;5050290;28;20585;-58
2022/03/15 13:30:13;;;;;;;10.98;5.80;;;;;;;;;;5048983;28;20218;-58
2022/03/15 13:32:38;;;;;;;13.85;5.40;;;;;;;;;;5049609;28;20215;-58
2022/03/15 13:35:03;;;;;;;14.93;5.88;;;;;;;;;;5084837;28;20288;-59
2022/03/15 13:37:29;;;;;;;13.48;5.90;;;;;;;;;;5075174;28;20210;-58
2022/03/15 13:39:54;;;;;;;13.48;5.97;;;;;;;;;;5069880;28;20238;-58
2022/03/15 13:42:20;;;;;;;11.98;5.88;;;;;;;;;;5050859;28;20222;-58
2022/03/15 13:44:53;;;;;;;11.82;5.85;;;;;;;;;;5062523;28;20219;-58
2022/03/15 13:47:21;;;;;;;14.77;5.95;;;;;;;;;;5057206;28;20275;-58
2022/03/15 13:49:48;;;;;;;12.40;6.20;;;;;;;;;;5070862;28;20689;-58
2022/03/15 13:52:16;;;;;;;13.45;5.53;;;;;;;;;;5068263;28;20733;-58
2022/03/15 13:54:50;;;;;;;11.48;6.13;;;;;;;;;;5069707;28;20210;-58
2022/03/15 13:57:26;;;;;;;13.45;5.80;;;;;;;;;;5038729;28;20218;-58
2022/03/15 13:59:58;;;;;;;10.90;6.13;;;;;;;;;;5077431;28;20543;-58
2022/03/15 14:02:24;;;;;;;12.38;5.75;;;;;;;;;;5051039;28;20293;-60
2022/03/15 14:04:57;;;;;;;13.45;6.22;;;;;;;;;;5069075;28;20301;-59
2022/03/15 14:07:23;;;;;;;12.57;5.75;;;;;;;;;;5068984;28;20210;-59
2022/03/15 14:09:48;;;;;;;15.90;5.65;;;;;;;;;;5069064;28;20266;-59
2022/03/15 14:12:17;;;;;;;17.08;5.47;;;;;;;;;;5068866;28;20284;-59
2022/03/15 14:14:51;;;;;;;12.20;5.55;;;;;;;;;;5093772;28;20210;-59
2022/03/15 14:17:17;;;;;;;9.13;5.07;;;;;;;;;;5092345;28;20229;-59
2022/03/15 14:19:44;;;;;;;12.45;5.32;;;;;;;;;;5093607;28;20630;-59
2022/03/15 14:22:09;;;;;;;12.45;5.60;;;;;;;;;;5093304;28;20301;-59